Terminal Aerodrome Forecast
Issued by NWS

Home | Current Version | Previous Version | Text Only | Print | Product List | Glossary On
Versions: 1 2 3 4 5 6 7 8 9 10 11 12 13 14 15 16 17 18 19 20 21 22
000
FTUS41 KPBZ 292002 AAB
TAFFKL
TAF AMD
KFKL 292002Z 2920/3018 00000KT 3SM BR VCSH OVC005
     FM300300 VRB03KT 3SM BR BKN003
     FM301200 00000KT 3SM BR SCT003
     FM301500 11005KT P6SM BKN045
      AMD LTD TO CLD VIS AND WIND=

USA.gov is the U.S. government's official web portal to all federal, state and local government web resources and services.